Time;durP1;ratioP1;P1;durP2;ratioP2;P2;SDS_P1;SDS_P2;PMS_P1;PMS_P2;Temp;Humidity;BMP_temperature;BMP_pressure;BME280_temperature;BME280_humidity;BME280_pressure;Samples;Min_cycle;Max_cycle;Signal;HPM_P1;HPM_P2
2022/07/30 00:01:29;;;;;;;5.13;4.38;;;15.70;99.90;;;;;;5044672;28;20041;-73
2022/07/30 00:03:54;;;;;;;7.72;4.75;;;15.70;99.90;;;;;;5045831;28;20051;-72
2022/07/30 00:06:20;;;;;;;8.43;5.00;;;15.70;99.90;;;;;;5046307;28;20076;-72
2022/07/30 00:08:45;;;;;;;9.07;5.22;;;15.70;99.90;;;;;;5042625;28;20107;-72
2022/07/30 00:11:11;;;;;;;7.13;4.75;;;15.70;99.90;;;;;;5045064;28;20045;-72
2022/07/30 00:13:37;;;;;;;9.70;5.32;;;15.70;99.90;;;;;;5044636;28;20399;-73
2022/07/30 00:16:03;;;;;;;8.88;5.53;;;15.80;99.90;;;;;;5044384;28;20041;-72
2022/07/30 00:18:29;;;;;;;10.43;5.57;;;15.80;99.90;;;;;;5039622;28;20171;-72
2022/07/30 00:20:54;;;;;;;9.75;5.78;;;15.80;99.90;;;;;;5042872;28;20033;-72
2022/07/30 00:23:20;;;;;;;11.07;5.82;;;15.80;99.90;;;;;;5062948;28;20183;-72
2022/07/30 00:25:45;;;;;;;5.10;4.60;;;15.80;99.90;;;;;;5043875;28;20041;-72
2022/07/30 00:28:11;;;;;;;5.22;4.40;;;15.70;99.90;;;;;;5045467;28;20037;-72
2022/07/30 00:30:39;;;;;;;7.55;4.80;;;15.70;99.90;;;;;;5043807;28;20165;-72
2022/07/30 00:33:05;;;;;;;7.38;5.00;;;15.60;99.90;;;;;;5043570;28;20136;-72
2022/07/30 00:35:31;;;;;;;6.53;5.18;;;15.70;99.90;;;;;;5042791;28;20033;-72
2022/07/30 00:37:57;;;;;;;7.20;5.55;;;15.60;99.90;;;;;;5043609;28;20118;-72
2022/07/30 00:40:23;;;;;;;5.00;4.18;;;15.60;99.90;;;;;;5039914;28;20068;-72
2022/07/30 00:42:49;;;;;;;6.10;3.92;;;15.60;99.90;;;;;;5039964;28;20083;-72
2022/07/30 00:45:16;;;;;;;3.78;3.25;;;15.60;99.90;;;;;;5046674;28;20487;-72
2022/07/30 00:47:42;;;;;;;7.90;5.03;;;15.50;99.90;;;;;;5060682;28;20029;-72
2022/07/30 00:50:09;;;;;;;8.15;5.15;;;15.40;99.90;;;;;;5042592;28;20060;-73
2022/07/30 00:52:39;;;;;;;8.02;5.22;;;15.30;99.90;;;;;;5042238;28;20040;-72
2022/07/30 00:55:06;;;;;;;4.78;3.95;;;15.30;99.90;;;;;;5042776;28;20048;-72
2022/07/30 00:57:32;;;;;;;8.43;4.57;;;15.20;99.90;;;;;;5061191;28;20037;-72
2022/07/30 00:59:58;;;;;;;8.90;5.65;;;15.20;99.90;;;;;;5045526;28;20044;-71
2022/07/30 01:02:23;;;;;;;7.13;5.30;;;15.10;99.90;;;;;;5042972;28;20499;-72
2022/07/30 01:04:49;;;;;;;6.72;5.32;;;15.10;99.90;;;;;;5043866;28;20518;-71
2022/07/30 01:07:15;;;;;;;9.35;5.53;;;15.10;99.90;;;;;;5041751;28;20563;-71
2022/07/30 01:09:41;;;;;;;7.03;4.88;;;15.00;99.90;;;;;;5041634;28;20135;-71
2022/07/30 01:12:09;;;;;;;8.85;5.15;;;15.10;99.90;;;;;;5041535;28;20052;-71
2022/07/30 01:14:36;;;;;;;5.63;4.82;;;15.00;99.90;;;;;;5044076;28;20043;-72
2022/07/30 01:17:02;;;;;;;5.53;4.65;;;15.00;99.90;;;;;;5042884;28;20049;-72
2022/07/30 01:19:52;;;;;;;6.95;4.63;;;15.00;99.90;;;;;;5039663;28;20118;-72
2022/07/30 01:22:30;;;;;;;8.02;5.20;;;15.00;99.90;;;;;;5053862;28;20090;-72
2022/07/30 01:25:07;;;;;;;6.20;4.88;;;15.00;99.90;;;;;;5057037;28;20033;-72
2022/07/30 01:27:51;;;;;;;9.15;5.80;;;14.90;99.90;;;;;;5059105;28;20037;-72
2022/07/30 01:30:20;;;;;;;8.95;5.20;;;14.90;99.90;;;;;;5024788;28;20072;-72
2022/07/30 01:32:48;;;;;;;5.10;3.20;;;14.90;99.90;;;;;;5044569;28;20075;-72
2022/07/30 01:35:16;;;;;;;6.85;3.95;;;14.90;99.90;;;;;;5044306;28;20087;-72
2022/07/30 01:37:43;;;;;;;5.93;4.53;;;14.80;99.90;;;;;;5042580;28;22361;-72
2022/07/30 01:40:10;;;;;;;5.43;4.80;;;14.80;99.90;;;;;;5042881;28;20124;-72
2022/07/30 01:42:38;;;;;;;8.68;5.10;;;14.80;99.90;;;;;;5041806;28;20079;-72
2022/07/30 01:45:05;;;;;;;7.15;5.72;;;14.70;99.90;;;;;;5042628;28;20032;-72
2022/07/30 01:47:32;;;;;;;9.40;5.15;;;14.70;99.90;;;;;;5038610;28;20040;-72
2022/07/30 01:50:00;;;;;;;6.10;5.50;;;14.70;99.90;;;;;;5043653;28;20048;-72
2022/07/30 01:52:29;;;;;;;7.22;5.60;;;14.70;99.90;;;;;;5041164;28;20164;-73
2022/07/30 01:54:57;;;;;;;9.02;5.50;;;14.70;99.90;;;;;;5043222;28;20475;-72
2022/07/30 01:57:24;;;;;;;6.80;5.05;;;14.80;99.90;;;;;;5046399;28;20079;-72
2022/07/30 01:59:56;;;;;;;5.82;4.97;;;14.70;99.90;;;;;;5048288;28;20043;-73
2022/07/30 02:02:22;;;;;;;8.10;5.00;;;14.60;99.90;;;;;;5038407;28;20048;-72
2022/07/30 02:04:48;;;;;;;8.15;5.00;;;14.70;99.90;;;;;;5037766;28;20037;-72
2022/07/30 02:07:21;;;;;;;6.05;5.40;;;14.60;99.90;;;;;;5040057;28;20044;-72
2022/07/30 02:10:00;;;;;;;6.70;5.45;;;14.60;99.90;;;;;;5037952;28;20072;-72
2022/07/30 02:12:28;;;;;;;5.57;5.13;;;14.60;99.90;;;;;;5054437;28;20114;-72
2022/07/30 02:15:07;;;;;;;3.08;2.88;;;14.60;99.90;;;;;;5037763;28;20082;-72
2022/07/30 02:17:41;;;;;;;2.63;2.28;;;14.60;99.90;;;;;;5038604;28;20045;-73
2022/07/30 02:20:11;;;;;;;2.55;2.30;;;14.40;99.90;;;;;;5052750;28;20048;-73
2022/07/30 02:22:39;;;;;;;4.78;3.20;;;14.30;99.90;;;;;;5040123;28;20044;-72
2022/07/30 02:25:07;;;;;;;3.60;3.00;;;14.20;99.90;;;;;;5038614;28;20060;-73
2022/07/30 02:27:37;;;;;;;3.97;3.63;;;14.20;99.90;;;;;;5039551;28;20132;-72
2022/07/30 02:30:03;;;;;;;3.65;3.35;;;14.10;99.90;;;;;;5040283;28;20191;-72
2022/07/30 02:32:33;;;;;;;6.15;4.20;;;14.00;99.90;;;;;;5039908;28;20056;-73
2022/07/30 02:35:04;;;;;;;6.22;4.50;;;13.90;99.90;;;;;;5050896;28;20128;-73
2022/07/30 02:37:32;;;;;;;4.50;4.10;;;13.80;99.90;;;;;;5037254;28;20049;-72
2022/07/30 02:39:59;;;;;;;6.38;5.03;;;13.80;99.90;;;;;;5040066;28;20044;-73
2022/07/30 02:42:26;;;;;;;6.55;4.50;;;13.80;99.90;;;;;;5039113;28;20044;-72
2022/07/30 02:44:53;;;;;;;6.15;5.38;;;13.80;99.90;;;;;;5039394;28;20033;-72
2022/07/30 02:47:22;;;;;;;6.68;5.32;;;13.90;99.90;;;;;;5040453;28;20060;-72
2022/07/30 02:49:49;;;;;;;4.72;4.32;;;13.90;99.90;;;;;;5053997;28;20376;-72
2022/07/30 02:52:16;;;;;;;6.25;4.43;;;13.90;99.90;;;;;;5041819;28;20044;-72
2022/07/30 02:54:43;;;;;;;8.70;5.70;;;13.90;99.90;;;;;;5040829;28;20037;-72
2022/07/30 02:57:10;;;;;;;8.27;5.70;;;13.90;99.90;;;;;;5040602;28;20048;-72
2022/07/30 02:59:38;;;;;;;7.03;6.15;;;13.90;99.90;;;;;;5038245;28;20114;-73
2022/07/30 03:02:05;;;;;;;8.63;6.20;;;14.00;99.90;;;;;;5038880;28;20041;-73
2022/07/30 03:04:32;;;;;;;7.05;6.45;;;14.00;99.90;;;;;;5045973;28;20087;-72
2022/07/30 03:06:59;;;;;;;8.07;7.00;;;14.00;99.90;;;;;;5043582;28;20124;-73
2022/07/30 03:09:26;;;;;;;10.20;7.07;;;14.10;99.90;;;;;;5037804;28;20048;-72
2022/07/30 03:11:53;;;;;;;9.68;7.47;;;14.10;99.90;;;;;;5044301;28;20045;-74
2022/07/30 03:14:20;;;;;;;9.85;7.50;;;14.10;99.90;;;;;;5039631;28;20055;-73
2022/07/30 03:16:50;;;;;;;9.00;7.80;;;14.10;99.90;;;;;;5046292;28;20041;-73
2022/07/30 03:19:18;;;;;;;8.27;7.22;;;14.00;99.90;;;;;;5045541;28;20072;-73
2022/07/30 03:21:45;;;;;;;9.60;7.65;;;14.00;99.90;;;;;;5044320;28;20095;-72
2022/07/30 03:24:12;;;;;;;9.02;8.13;;;14.00;99.90;;;;;;5061055;28;20037;-72
2022/07/30 03:26:40;;;;;;;7.85;6.90;;;13.90;99.90;;;;;;5043947;28;21643;-72
2022/07/30 03:29:07;;;;;;;10.50;8.85;;;13.90;99.90;;;;;;5044466;28;20163;-73
2022/07/30 03:31:34;;;;;;;11.63;8.13;;;13.90;99.90;;;;;;5044330;28;20038;-72
2022/07/30 03:34:01;;;;;;;9.98;8.93;;;13.90;99.90;;;;;;5043071;28;20045;-72
2022/07/30 03:36:28;;;;;;;9.43;7.93;;;13.90;99.90;;;;;;5041106;28;20710;-72
2022/07/30 03:38:54;;;;;;;45.60;9.40;;;13.90;99.90;;;;;;5042092;28;20060;-72
2022/07/30 03:41:21;;;;;;;19.55;8.38;;;13.90;99.90;;;;;;5042709;28;20036;-73
2022/07/30 03:43:48;;;;;;;26.90;9.02;;;13.90;99.90;;;;;;5043352;28;20041;-72
2022/07/30 03:46:15;;;;;;;31.42;9.90;;;13.80;99.90;;;;;;5046967;28;20044;-72
2022/07/30 03:48:42;;;;;;;37.67;9.55;;;13.80;99.90;;;;;;5041165;28;20044;-73
2022/07/30 03:51:09;;;;;;;50.47;10.65;;;13.70;99.90;;;;;;5044350;28;20151;-72
2022/07/30 03:53:35;;;;;;;37.90;10.20;;;13.70;99.90;;;;;;5046270;28;20043;-74
2022/07/30 03:56:02;;;;;;;10.88;9.77;;;13.60;99.90;;;;;;5045307;28;20045;-73
2022/07/30 03:58:27;;;;;;;14.82;9.90;;;13.60;99.90;;;;;;5047598;28;20044;-73
2022/07/30 04:00:53;;;;;;;10.77;9.77;;;13.60;99.90;;;;;;5043861;28;20048;-73
2022/07/30 04:03:28;;;;;;;10.77;9.70;;;13.70;99.90;;;;;;5047715;28;20159;-72
2022/07/30 04:05:54;;;;;;;11.90;9.82;;;13.70;99.90;;;;;;5044697;28;20040;-72
2022/07/30 04:08:20;;;;;;;19.65;10.55;;;13.80;99.90;;;;;;5045330;28;20052;-73
2022/07/30 04:10:47;;;;;;;36.95;11.65;;;13.80;99.90;;;;;;5043396;28;20037;-74
2022/07/30 04:13:13;;;;;;;23.60;10.98;;;13.80;99.90;;;;;;5045043;28;20044;-72
2022/07/30 04:15:50;;;;;;;20.20;10.68;;;13.80;99.90;;;;;;5041504;28;20033;-72
2022/07/30 04:18:18;;;;;;;18.83;11.18;;;13.90;99.90;;;;;;5043962;28;20040;-73
2022/07/30 04:20:46;;;;;;;15.43;11.02;;;13.90;99.90;;;;;;5044121;28;20069;-73
2022/07/30 04:23:13;;;;;;;15.20;11.15;;;13.90;99.90;;;;;;5041477;28;20115;-72
2022/07/30 04:25:41;;;;;;;39.25;12.32;;;14.00;99.90;;;;;;5044616;28;20072;-72
2022/07/30 04:28:09;;;;;;;24.30;12.15;;;14.10;99.90;;;;;;5047008;28;20039;-73
2022/07/30 04:30:34;;;;;;;12.35;11.02;;;14.10;99.90;;;;;;5043499;28;20040;-73
2022/07/30 04:33:02;;;;;;;23.92;11.60;;;14.20;99.90;;;;;;5043328;28;20111;-73
2022/07/30 04:35:29;;;;;;;18.35;10.80;;;14.30;99.90;;;;;;5041507;28;20056;-72
2022/07/30 04:37:54;;;;;;;21.38;10.55;;;14.30;99.90;;;;;;5042402;28;20095;-73
2022/07/30 04:40:20;;;;;;;25.95;10.80;;;14.40;99.90;;;;;;5044477;28;20590;-73
2022/07/30 04:42:46;;;;;;;34.05;11.38;;;14.50;99.90;;;;;;5057992;28;20065;-72
2022/07/30 04:45:12;;;;;;;22.55;10.85;;;14.50;99.90;;;;;;5041616;28;20060;-73
2022/07/30 04:47:37;;;;;;;39.13;12.07;;;14.60;99.90;;;;;;5040813;28;20088;-73
2022/07/30 04:50:06;;;;;;;40.20;11.60;;;14.60;99.90;;;;;;5043713;28;20044;-73
2022/07/30 04:52:33;;;;;;;58.83;12.52;;;14.70;99.90;;;;;;5042983;28;20102;-74
2022/07/30 04:55:03;;;;;;;41.85;12.60;;;14.70;99.90;;;;;;5042933;28;20029;-72
2022/07/30 04:57:30;;;;;;;17.42;11.32;;;14.70;99.90;;;;;;5045301;28;20073;-72
2022/07/30 04:59:56;;;;;;;19.75;11.60;;;14.70;99.90;;;;;;5042216;28;20083;-73
2022/07/30 05:02:25;;;;;;;41.85;13.00;;;14.80;99.90;;;;;;5041253;28;20039;-73
2022/07/30 05:04:52;;;;;;;36.35;12.10;;;14.80;99.90;;;;;;5043781;28;20047;-73
2022/07/30 05:07:20;;;;;;;29.33;11.82;;;14.90;99.90;;;;;;5044291;28;20446;-74
2022/07/30 05:09:46;;;;;;;21.17;11.20;;;15.00;99.90;;;;;;5041925;28;20040;-73
2022/07/30 05:12:12;;;;;;;40.25;15.43;;;15.10;99.90;;;;;;5040320;28;20103;-72
2022/07/30 05:14:37;;;;;;;77.20;18.48;;;15.10;99.90;;;;;;5044934;28;20048;-73
2022/07/30 05:17:03;;;;;;;86.55;21.38;;;15.20;99.90;;;;;;5041417;28;20052;-73
2022/07/30 05:19:29;;;;;;;133.85;22.42;;;15.30;99.90;;;;;;5040075;28;20446;-72
2022/07/30 05:21:55;;;;;;;53.60;16.20;;;15.40;99.90;;;;;;5043046;28;20037;-72
2022/07/30 05:24:21;;;;;;;56.88;12.75;;;15.50;99.90;;;;;;5041054;28;20075;-73
2022/07/30 05:26:47;;;;;;;44.60;13.48;;;15.50;99.90;;;;;;5040413;28;20049;-73
2022/07/30 05:29:12;;;;;;;56.05;13.93;;;15.50;99.90;;;;;;5042655;28;20051;-74
2022/07/30 05:31:38;;;;;;;44.22;12.65;;;15.60;99.90;;;;;;5040840;28;20036;-73
2022/07/30 05:34:04;;;;;;;53.72;13.05;;;15.70;99.90;;;;;;5040990;28;20128;-72
2022/07/30 05:36:30;;;;;;;45.40;12.65;;;15.70;99.90;;;;;;5039105;28;20052;-73
2022/07/30 05:38:56;;;;;;;47.38;12.25;;;15.80;99.90;;;;;;5026856;28;20037;-73
2022/07/30 05:41:22;;;;;;;50.20;13.00;;;15.80;99.90;;;;;;5012813;28;20510;-72
2022/07/30 05:43:48;;;;;;;53.30;12.48;;;16.00;99.90;;;;;;5045247;28;20038;-73
2022/07/30 05:46:13;;;;;;;33.28;12.70;;;16.10;99.90;;;;;;5048650;28;20106;-72
2022/07/30 05:48:39;;;;;;;52.15;14.13;;;16.10;99.90;;;;;;5033376;28;20048;-72
2022/07/30 05:51:05;;;;;;;40.97;13.32;;;16.20;99.90;;;;;;5051121;28;20033;-73
2022/07/30 05:53:31;;;;;;;35.00;13.68;;;16.20;99.90;;;;;;5048306;28;20073;-72
2022/07/30 05:55:57;;;;;;;44.45;13.07;;;16.30;99.90;;;;;;5046435;28;20114;-73
2022/07/30 05:58:23;;;;;;;39.83;14.32;;;16.30;99.90;;;;;;5046919;28;20518;-73
2022/07/30 06:00:49;;;;;;;40.58;14.40;;;16.40;99.90;;;;;;5046166;28;20034;-73
2022/07/30 06:03:15;;;;;;;31.98;14.15;;;16.40;99.90;;;;;;5035120;28;20044;-73
2022/07/30 06:05:40;;;;;;;20.52;11.50;;;16.50;99.90;;;;;;5049685;28;20037;-72
2022/07/30 06:08:06;;;;;;;31.08;12.05;;;16.60;99.90;;;;;;5043659;28;20069;-71
2022/07/30 06:10:32;;;;;;;36.45;13.57;;;16.60;99.90;;;;;;5045217;28;20543;-71
2022/07/30 06:12:58;;;;;;;27.17;12.40;;;16.70;99.90;;;;;;5030844;28;20438;-71
2022/07/30 06:15:23;;;;;;;18.25;12.40;;;16.70;99.90;;;;;;5046613;28;20092;-72
2022/07/30 06:17:49;;;;;;;15.68;12.82;;;16.90;99.90;;;;;;5036544;28;20049;-72
2022/07/30 06:20:17;;;;;;;18.70;13.50;;;16.90;99.90;;;;;;5046169;28;20044;-73
2022/07/30 06:22:43;;;;;;;37.38;14.35;;;17.10;99.90;;;;;;5030721;28;20511;-73
2022/07/30 06:25:09;;;;;;;18.52;13.35;;;17.10;99.90;;;;;;5042261;28;20041;-73
2022/07/30 06:27:35;;;;;;;16.10;11.93;;;17.20;99.90;;;;;;5036345;28;20514;-73
2022/07/30 06:30:03;;;;;;;31.75;14.38;;;17.30;99.90;;;;;;5048777;28;20499;-73
2022/07/30 06:32:29;;;;;;;32.75;14.73;;;17.30;99.90;;;;;;5050435;28;20526;-73
2022/07/30 06:34:55;;;;;;;18.50;14.60;;;17.40;99.90;;;;;;5050240;28;20045;-73
2022/07/30 06:37:20;;;;;;;20.10;15.75;;;17.50;99.90;;;;;;5045399;28;20128;-73
2022/07/30 06:39:46;;;;;;;19.23;16.38;;;17.50;99.90;;;;;;5033271;28;20041;-74
2022/07/30 06:42:12;;;;;;;23.33;15.02;;;17.60;99.90;;;;;;5039142;28;20040;-74
2022/07/30 06:44:37;;;;;;;17.90;16.00;;;17.60;99.90;;;;;;5033600;28;20499;-74
2022/07/30 06:47:03;;;;;;;23.75;16.73;;;17.70;99.90;;;;;;5042997;28;20049;-74
2022/07/30 06:49:32;;;;;;;17.73;15.38;;;17.70;99.90;;;;;;5035703;28;20021;-74
2022/07/30 06:51:58;;;;;;;17.17;13.93;;;17.70;99.90;;;;;;5032926;28;20060;-74
2022/07/30 06:54:24;;;;;;;25.67;15.68;;;17.90;99.90;;;;;;5049252;28;20045;-74
2022/07/30 06:56:50;;;;;;;21.38;16.67;;;17.90;99.90;;;;;;5041834;28;20402;-74
2022/07/30 06:59:15;;;;;;;21.42;16.02;;;18.10;99.90;;;;;;5043697;28;20037;-74
2022/07/30 07:01:41;;;;;;;18.60;15.57;;;18.10;99.90;;;;;;5045275;28;20033;-74
2022/07/30 07:04:07;;;;;;;19.55;15.45;;;18.20;99.90;;;;;;5036352;28;20479;-74
2022/07/30 07:06:33;;;;;;;18.40;14.95;;;18.30;99.90;;;;;;5049900;28;20052;-74
2022/07/30 07:08:59;;;;;;;17.50;14.27;;;18.40;99.90;;;;;;5042905;28;20120;-74
2022/07/30 07:11:25;;;;;;;19.13;15.07;;;18.50;99.90;;;;;;5047876;28;20043;-74
2022/07/30 07:13:50;;;;;;;21.02;15.75;;;18.60;99.90;;;;;;5044702;28;20045;-74
2022/07/30 07:16:20;;;;;;;19.83;14.70;;;18.70;99.90;;;;;;5043262;28;20480;-74
2022/07/30 07:18:46;;;;;;;24.98;15.57;;;18.70;99.90;;;;;;5029617;28;20076;-74
2022/07/30 07:21:15;;;;;;;20.40;14.20;;;18.80;99.90;;;;;;5035473;28;20045;-74
2022/07/30 07:23:41;;;;;;;23.63;16.00;;;18.80;99.90;;;;;;5038671;28;20064;-74
2022/07/30 07:26:06;;;;;;;20.27;14.95;;;18.90;99.90;;;;;;5040578;28;20526;-74
2022/07/30 07:28:32;;;;;;;18.15;14.57;;;18.90;99.90;;;;;;5037352;28;20037;-74
2022/07/30 07:30:58;;;;;;;21.25;15.45;;;18.90;99.90;;;;;;5041171;28;20523;-74
2022/07/30 07:33:23;;;;;;;17.60;14.35;;;19.00;99.90;;;;;;5050036;28;20044;-74
2022/07/30 07:35:49;;;;;;;20.17;14.82;;;19.10;99.90;;;;;;5049681;28;20508;-74
2022/07/30 07:38:18;;;;;;;17.40;14.38;;;19.20;99.90;;;;;;5040472;28;20116;-74
2022/07/30 07:40:44;;;;;;;19.70;14.27;;;19.20;99.90;;;;;;5039959;28;20095;-74
2022/07/30 07:43:10;;;;;;;15.43;12.82;;;19.30;99.90;;;;;;5041608;28;20302;-74
2022/07/30 07:45:35;;;;;;;19.75;14.00;;;19.30;99.90;;;;;;5044394;28;20055;-74
2022/07/30 07:48:01;;;;;;;17.73;13.00;;;19.40;99.90;;;;;;5049180;28;20120;-74
2022/07/30 07:50:27;;;;;;;15.63;11.93;;;19.40;99.90;;;;;;5049681;28;20051;-74
2022/07/30 07:52:53;;;;;;;16.42;11.95;;;19.40;99.90;;;;;;5045719;28;20080;-74
2022/07/30 07:55:18;;;;;;;18.45;12.98;;;19.50;99.90;;;;;;5034045;28;20488;-73
2022/07/30 07:57:44;;;;;;;15.07;11.18;;;19.60;99.90;;;;;;5047405;28;20488;-73
2022/07/30 08:00:19;;;;;;;16.90;9.52;;;19.80;99.90;;;;;;5037639;28;20042;-73
2022/07/30 08:02:46;;;;;;;13.27;7.90;;;20.10;99.90;;;;;;5041794;28;20033;-73
2022/07/30 08:05:12;;;;;;;16.45;9.00;;;20.20;99.90;;;;;;5049636;28;20396;-72
2022/07/30 08:07:42;;;;;;;17.30;7.68;;;20.40;99.90;;;;;;5049862;28;20043;-73
2022/07/30 08:10:08;;;;;;;9.10;7.15;;;20.40;99.90;;;;;;5054686;28;20048;-73
2022/07/30 08:12:34;;;;;;;11.95;7.18;;;20.30;99.90;;;;;;5039781;28;20047;-73
2022/07/30 08:15:01;;;;;;;10.90;6.00;;;20.40;99.90;;;;;;5053198;28;20044;-73
2022/07/30 08:17:28;;;;;;;14.48;5.80;;;20.60;99.90;;;;;;5048265;28;20591;-72
2022/07/30 08:20:01;;;;;;;11.35;5.55;;;20.70;99.90;;;;;;5039842;28;20040;-72
2022/07/30 08:22:27;;;;;;;11.25;6.00;;;20.80;99.90;;;;;;5041706;28;20072;-73
2022/07/30 08:24:53;;;;;;;11.13;7.20;;;20.80;99.90;;;;;;5051900;28;20076;-73
2022/07/30 08:27:18;;;;;;;10.25;4.95;;;20.80;99.90;;;;;;5035250;28;20045;-73
2022/07/30 08:29:44;;;;;;;13.98;5.60;;;20.80;99.90;;;;;;5050495;28;20044;-73
2022/07/30 08:32:10;;;;;;;9.40;4.85;;;20.80;99.90;;;;;;5046361;28;20055;-73
2022/07/30 08:34:35;;;;;;;12.25;4.18;;;21.00;99.90;;;;;;5048145;28;20041;-73
2022/07/30 08:37:01;;;;;;;7.07;3.92;;;21.10;99.90;;;;;;5038276;28;20082;-73
2022/07/30 08:39:26;;;;;;;10.65;3.85;;;21.10;99.90;;;;;;5035084;28;20040;-73
2022/07/30 08:41:53;;;;;;;6.40;3.95;;;21.00;99.90;;;;;;5048504;28;20065;-73
2022/07/30 08:44:20;;;;;;;9.40;3.90;;;21.10;99.90;;;;;;5032712;28;20044;-74
2022/07/30 08:46:47;;;;;;;12.30;4.38;;;21.30;99.90;;;;;;5028406;28;20045;-73
2022/07/30 08:49:14;;;;;;;8.45;3.30;;;21.60;99.90;;;;;;5038612;28;20037;-73
2022/07/30 08:51:41;;;;;;;8.77;3.30;;;21.70;99.90;;;;;;5050235;28;20055;-74
2022/07/30 08:54:06;;;;;;;9.73;3.30;;;21.90;99.90;;;;;;5043551;28;20083;-73
2022/07/30 08:56:33;;;;;;;12.90;3.70;;;21.90;99.90;;;;;;5051197;28;20041;-73
2022/07/30 08:59:00;;;;;;;8.55;3.47;;;22.00;99.90;;;;;;5055145;28;20119;-73
2022/07/30 09:01:26;;;;;;;6.47;3.38;;;22.20;99.90;;;;;;5047530;28;20040;-73
2022/07/30 09:03:52;;;;;;;6.78;3.47;;;22.20;99.90;;;;;;5037378;28;20049;-74
2022/07/30 09:06:18;;;;;;;6.90;3.25;;;22.50;99.90;;;;;;5052054;28;20037;-73
2022/07/30 09:08:44;;;;;;;10.05;3.33;;;22.60;99.90;;;;;;5049170;28;20414;-73
2022/07/30 09:11:09;;;;;;;11.80;3.53;;;22.70;99.90;;;;;;5047944;28;20099;-73
2022/07/30 09:13:40;;;;;;;8.68;3.05;;;22.60;99.90;;;;;;5050818;28;20430;-73
2022/07/30 09:16:16;;;;;;;8.25;3.05;;;22.60;99.90;;;;;;5043230;28;20052;-74
2022/07/30 09:18:43;;;;;;;8.88;3.08;;;22.50;99.90;;;;;;5043288;28;20045;-74
2022/07/30 09:21:16;;;;;;;9.18;3.03;;;22.60;99.90;;;;;;5051334;28;20068;-74
2022/07/30 09:24:03;;;;;;;8.00;2.78;;;22.70;99.90;;;;;;5042341;28;20029;-73
2022/07/30 09:26:31;;;;;;;6.68;2.83;;;22.80;99.90;;;;;;5027106;28;20129;-74
2022/07/30 09:29:17;;;;;;;7.40;2.55;;;23.00;99.90;;;;;;5045988;28;20052;-73
2022/07/30 09:31:54;;;;;;;9.05;2.80;;;23.00;99.90;;;;;;5045247;28;20041;-73
2022/07/30 09:34:27;;;;;;;9.48;2.60;;;23.00;99.90;;;;;;5048783;28;20044;-73
2022/07/30 09:36:53;;;;;;;5.15;2.50;;;23.10;99.90;;;;;;5044102;28;20041;-73
2022/07/30 09:39:31;;;;;;;7.90;2.25;;;23.30;99.90;;;;;;5047170;28;20049;-74
2022/07/30 09:41:57;;;;;;;5.50;2.20;;;23.40;99.90;;;;;;5045769;28;20068;-74
2022/07/30 09:44:28;;;;;;;5.57;2.20;;;23.50;99.90;;;;;;5033453;28;20903;-73
2022/07/30 09:46:54;;;;;;;7.97;2.50;;;23.60;99.90;;;;;;5042901;28;20052;-73
2022/07/30 09:49:23;;;;;;;9.85;2.35;;;23.80;99.90;;;;;;5033686;28;20051;-73
2022/07/30 09:51:50;;;;;;;7.07;2.22;;;23.90;99.90;;;;;;5045522;28;20045;-73
2022/07/30 09:54:16;;;;;;;7.10;2.80;;;24.00;99.90;;;;;;5050636;28;20467;-72
2022/07/30 09:56:42;;;;;;;7.78;2.38;;;24.10;99.90;;;;;;5040900;28;20084;-73
2022/07/30 09:59:25;;;;;;;8.20;2.40;;;23.90;99.90;;;;;;5053351;28;20067;-73
2022/07/30 10:01:52;;;;;;;12.98;3.13;;;23.70;99.90;;;;;;5049263;28;20080;-73
2022/07/30 10:04:30;;;;;;;7.85;2.80;;;23.60;99.90;;;;;;5043040;28;20818;-73
2022/07/30 10:06:58;;;;;;;7.13;2.60;;;23.50;99.90;;;;;;5038865;28;20052;-73
2022/07/30 10:09:29;;;;;;;6.68;2.30;;;23.70;99.90;;;;;;5042019;28;20098;-73
2022/07/30 10:11:57;;;;;;;7.68;2.40;;;23.80;99.90;;;;;;5060711;28;20037;-73
2022/07/30 10:14:26;;;;;;;4.20;2.20;;;23.90;99.90;;;;;;5038483;28;20041;-73
2022/07/30 10:16:52;;;;;;;6.20;2.42;;;24.10;99.90;;;;;;5050448;28;20052;-73
2022/07/30 10:19:19;;;;;;;6.28;2.05;;;24.20;99.90;;;;;;5045918;28;20080;-74
2022/07/30 10:21:45;;;;;;;9.50;2.35;;;24.40;99.90;;;;;;5061993;28;20080;-73
2022/07/30 10:24:14;;;;;;;6.07;2.20;;;24.30;99.90;;;;;;5022514;28;20115;-74
2022/07/30 10:26:40;;;;;;;6.53;2.78;;;24.40;99.90;;;;;;5041792;28;20041;-74
2022/07/30 10:29:06;;;;;;;6.95;2.42;;;24.50;99.90;;;;;;5035577;28;20041;-74
2022/07/30 10:31:31;;;;;;;8.32;2.47;;;24.40;99.90;;;;;;5040967;28;20103;-74
2022/07/30 10:33:58;;;;;;;8.63;2.25;;;24.20;99.90;;;;;;5041554;28;20045;-74
2022/07/30 10:36:24;;;;;;;7.78;2.35;;;24.10;99.90;;;;;;5036628;28;20038;-73
2022/07/30 10:38:51;;;;;;;6.07;2.47;;;24.00;99.90;;;;;;5049382;28;20044;-73
2022/07/30 10:41:32;;;;;;;6.28;2.20;;;24.10;99.90;;;;;;5040675;28;20041;-74
2022/07/30 10:44:24;;;;;;;5.25;2.22;;;24.20;99.90;;;;;;5047882;28;20041;-74
2022/07/30 10:47:02;;;;;;;7.65;2.35;;;24.40;99.90;;;;;;5038686;28;20037;-74
2022/07/30 10:49:29;;;;;;;5.03;2.22;;;24.60;99.90;;;;;;5048646;28;20123;-74
2022/07/30 10:51:55;;;;;;;10.60;2.13;;;24.70;99.90;;;;;;5050331;28;20561;-73
2022/07/30 10:54:33;;;;;;;6.35;2.05;;;24.90;99.90;;;;;;5048915;28;20094;-73
2022/07/30 10:57:02;;;;;;;7.53;2.35;;;25.20;99.90;;;;;;5044895;28;20037;-73
2022/07/30 10:59:28;;;;;;;6.65;2.33;;;25.30;99.90;;;;;;5042150;28;20044;-74
2022/07/30 11:01:57;;;;;;;5.38;2.45;;;25.10;99.90;;;;;;5039897;28;20040;-74
2022/07/30 11:04:27;;;;;;;10.35;2.42;;;24.90;99.90;;;;;;5043947;28;20120;-74
2022/07/30 11:07:26;;;;;;;6.05;2.17;;;25.00;99.90;;;;;;5046356;28;20045;-74
2022/07/30 11:09:54;;;;;;;8.15;2.00;;;25.20;99.10;;;;;;5048331;28;20047;-74
2022/07/30 11:12:42;;;;;;;8.15;2.25;;;25.40;98.10;;;;;;5044701;28;20059;-74
2022/07/30 11:15:13;;;;;;;4.30;2.20;;;25.40;93.90;;;;;;5046891;28;20060;-74
2022/07/30 11:18:06;;;;;;;6.65;2.10;;;25.30;95.70;;;;;;5062694;28;20083;-74
2022/07/30 11:20:33;;;;;;;6.70;2.33;;;25.40;99.10;;;;;;5040644;28;20045;-74
2022/07/30 11:23:09;;;;;;;8.85;2.30;;;25.50;99.90;;;;;;5039095;28;20065;-74
2022/07/30 11:25:35;;;;;;;4.78;2.03;;;25.70;99.90;;;;;;5033060;28;20388;-75
2022/07/30 11:28:00;;;;;;;10.07;2.35;;;25.90;98.90;;;;;;5034027;28;20124;-74
2022/07/30 11:30:31;;;;;;;5.40;2.17;;;25.80;98.20;;;;;;5033407;28;20049;-74
2022/07/30 11:33:03;;;;;;;6.10;1.90;;;25.90;98.00;;;;;;5046918;28;20037;-74
2022/07/30 11:35:30;;;;;;;3.92;2.00;;;26.10;97.50;;;;;;5036887;28;20048;-74
2022/07/30 11:38:18;;;;;;;7.22;1.83;;;26.30;97.40;;;;;;5053539;28;20147;-75
2022/07/30 11:40:50;;;;;;;7.00;1.90;;;26.30;96.90;;;;;;5052406;28;20037;-74
2022/07/30 11:43:28;;;;;;;;;;;26.20;96.60;;;;;;5039976;28;20055;-74
2022/07/30 11:46:16;;;;;;;5.78;1.92;;;26.00;93.20;;;;;;5043405;28;19924;-74
2022/07/30 11:48:58;;;;;;;8.85;1.92;;;26.00;94.40;;;;;;5053540;28;20048;-74
2022/07/30 11:51:24;;;;;;;6.43;2.08;;;26.10;94.40;;;;;;5034895;28;20042;-74
2022/07/30 11:54:05;;;;;;;4.78;2.00;;;26.10;93.90;;;;;;5033422;28;20049;-74
2022/07/30 11:56:31;;;;;;;5.50;1.70;;;26.10;94.90;;;;;;5038354;28;20038;-74
2022/07/30 11:59:06;;;;;;;7.20;1.88;;;26.20;95.20;;;;;;5039134;28;20041;-73
2022/07/30 12:01:33;;;;;;;5.82;1.88;;;26.20;92.60;;;;;;5053243;28;20037;-74
2022/07/30 12:04:04;;;;;;;4.35;1.70;;;26.20;89.70;;;;;;5052577;28;20055;-73
2022/07/30 12:06:35;;;;;;;6.72;1.88;;;25.90;87.60;;;;;;5051918;28;20045;-74
2022/07/30 12:09:00;;;;;;;5.30;1.80;;;26.10;91.60;;;;;;5053162;28;20049;-74
2022/07/30 12:11:34;;;;;;;7.88;1.98;;;26.20;91.90;;;;;;5053678;28;20048;-74
2022/07/30 12:14:01;;;;;;;4.88;1.70;;;26.20;91.90;;;;;;5053683;28;20411;-74
2022/07/30 12:16:28;;;;;;;4.18;1.90;;;26.10;91.60;;;;;;5052707;28;20040;-74
2022/07/30 12:18:54;;;;;;;4.72;1.67;;;26.00;91.50;;;;;;5052108;28;20048;-74
2022/07/30 12:21:20;;;;;;;6.70;1.60;;;25.90;91.40;;;;;;5051204;28;20045;-74
2022/07/30 12:23:57;;;;;;;4.47;1.50;;;25.90;90.00;;;;;;5037458;28;20090;-74
2022/07/30 12:26:31;;;;;;;6.57;1.63;;;25.90;83.40;;;;;;5066671;28;20048;-74
2022/07/30 12:29:00;;;;;;;4.78;1.80;;;26.00;82.00;;;;;;5041952;28;20179;-75
2022/07/30 12:31:26;;;;;;;5.63;1.60;;;26.10;89.10;;;;;;5037658;28;20037;-74
2022/07/30 12:33:52;;;;;;;6.57;1.73;;;26.30;88.10;;;;;;5052824;28;20053;-73
2022/07/30 12:36:30;;;;;;;5.38;1.83;;;26.40;88.30;;;;;;5050251;28;20040;-73
2022/07/30 12:38:56;;;;;;;5.47;1.90;;;26.40;84.20;;;;;;5048397;28;20045;-73
2022/07/30 12:41:38;;;;;;;5.40;1.50;;;26.20;85.10;;;;;;5050781;28;20045;-73
2022/07/30 12:44:04;;;;;;;4.22;1.50;;;26.40;84.70;;;;;;5045417;28;20470;-73
2022/07/30 12:46:40;;;;;;;3.97;1.55;;;26.40;87.10;;;;;;5047585;28;20079;-73